x

Buoy F01 - West Penobscot Bay (44033) Wave Buoy

1:04 - Mon 24th Nov 2014 All times are EST. -5 hours from GMT.

  • Sig Wave height 1.6ft
  • Peak Period 6s
  • Wind
    13mph, 16mph gusts
  • Sea Temp 49°f
  • Luft Temp 50°f
  • Sea Pressure 1018.5mb
  • Buoy F01 - West Penobscot Bay
  • Buoy F01 - West Penobscot Bay

More Historic Weather Station data

Upgrade to MSW Pro to gain access to the past 30 days of data for over 8000 Wavebouys and Weather Stations around the globe.

Join Pro

Comparision Forecast

View Surf forecast
   
Mo 11/24 1:04 1.6ft 6s 13 16 mph 1018.5mb 49f 50f
12:04 1.6ft 6s 11 13 mph 1018.9mb 49f 50f
So 11/23 11:04 1.6ft 6s 9 11 mph 1019.1mb 49f 50f
10:04 2.5ft 8s 9 11 mph 1019.2mb 49f 50f
9:04 2.5ft 6s 9
mph
1019.9mb 49f 50f
8:04 2.5ft 6s 9
mph
1020.1mb 49f 50f
7:04 2.5ft 6s 4
mph
1019.3mb 49f 49f
6:04 2.5ft 6s 4 7 mph 1019.1mb 49f 49f
5:04 2.5ft 6s 7 9 mph 1018.8mb 49f 49f
4:04 2.5ft 8s 7 9 mph 1018.3mb 49f 49f
2:04 3.5ft 8s 9 11 mph 1017mb 49f 50f
1:04 3.5ft 8s 9 11 mph 1016.7mb 49f 50f
12:04 3.5ft 8s 9 11 mph 1016.5mb 50f 49f
11:04 2.5ft 8s 11
mph
1017mb 50f 48f
10:04 3.5ft 8s 9 11 mph 1016.8mb 49f 47f
9:04 4ft 8s 13 16 mph 1016.7mb 49f 46f
8:04 3.5ft 8s 13 16 mph 1016.1mb 49f 44f
7:04 3.5ft 8s 13 16 mph 1015.5mb 49f 44f
6:04 3.5ft 8s 11 13 mph 1014.9mb 49f 43f
5:04 3.5ft 8s 11 13 mph 1014.3mb 49f 43f
4:04 3.5ft 8s 13 18 mph 1013.7mb 50f 43f
3:04 4.5ft 8s 11 13 mph 1013.6mb 50f 44f
2:04 4ft 8s 13 18 mph 1013.4mb 50f 44f
12:04 4ft 8s 18 22 mph 1012.6mb 49f 43f
Sa 11/22 11:04 4.5ft 8s 20 25 mph 1012.8mb 49f 44f
10:04 4.5ft 8s 25 31 mph 1012.7mb 49f 45f
9:04 5ft 8s 27 36 mph 1012.3mb 49f 46f
8:04 5ft 8s 27 31 mph 1013mb 50f 46f
7:04 4.5ft 5s 25 31 mph 1014mb 50f 45f
6:04 4.5ft 8s 25 29 mph 1015mb 50f 42f
5:04 4ft 8s 22 29 mph 1015.4mb 50f 42f
4:04 3.5ft 8s 20 27 mph 1015.9mb 50f 40f
3:04 3.5ft 6s 22 27 mph 1016.9mb 50f 38f
2:04 3.5ft 5s 22 27 mph 1017.4mb 50f 38f
1:04 4ft 5s 29 34 mph 1018.2mb 49f 38f
12:04 3.5ft 5s 25 31 mph 1019.5mb 49f 37f
11:04 2.5ft 3s 25 31 mph 1021.5mb 49f 35f
10:04 1.3ft 2s 18 22 mph 1023.6mb 49f 31f
9:04 1.3ft 2s 13 18 mph 1024.8mb 49f 30f
8:04 1.3ft 2s 13 16 mph 1025.3mb 49f 29f
7:04 1ft 2s 11 16 mph 1025.6mb 50f 28f
6:04 1ft 2s 13 18 mph 1026.1mb 50f 27f
5:04 0.7ft  -  22 27 mph 1026.4mb 50f 26f
4:04 0.7ft  -  11 20 mph 1026.3mb 50f 25f
3:04 0.7ft  -  11 20 mph 1026.6mb 50f 24f
2:04 1ft 2s 20 25 mph 1026.3mb 50f 25f
1:04 1.3ft 2s 18 27 mph 1025.8mb 49f 24f
12:04 1.3ft 3s 18 29 mph 1025.4mb 49f 25f
Fr 11/21 11:04 1.6ft 3s 22 34 mph 1024.9mb 50f 25f
10:04 1.6ft 3s 20 27 mph 1024.3mb 50f 26f
9:04 1.6ft 3s 20 27 mph 1023.6mb 50f 27f
8:04 1.3ft 3s 22 29 mph 1023mb 50f 28f
7:04 2ft 3s 20 27 mph 1022.3mb 50f 29f
6:04 1.6ft 3s 18 22 mph 1021.5mb 50f 30f
5:04 2ft 3s 18 22 mph 1020.5mb 50f 30f
4:04 2ft 3s 25 31 mph 1018.9mb 50f 31f
3:04 2.5ft 3s 25 29 mph 1017.3mb 50f 33f
2:04 2.5ft 3s 22 31 mph 1015.7mb 50f 33f
1:04 2.5ft 3s 20 27 mph 1014.4mb 50f 33f
12:04 2.5ft 3s 25 31 mph 1013.7mb 50f 32f
11:04 2ft 3s 22 29 mph 1013.4mb 50f 31f
10:04 1.6ft 3s 18 25 mph 1013.5mb 50f 30f
9:04 1.3ft 2s 18 25 mph 1012.8mb 50f 30f
8:04 2ft 3s 22 27 mph 1011.9mb 50f 30f
7:04 2.5ft 8s 20 25 mph 1011.2mb 50f 29f
6:04 1.6ft 6s 16 18 mph 1010.9mb 50f 29f
5:04 2ft 8s 16 20 mph 1010mb 50f 30f
4:04 2ft 8s 18 22 mph 1009.5mb 50f 31f
3:04 2.5ft 6s 18 22 mph 1009.1mb 50f 31f
2:04 2.5ft 6s 18 20 mph 1009mb 50f 33f
1:04 2ft 6s 16 20 mph 1008.8mb 50f 34f
12:04 2ft 6s 18 22 mph 1008.8mb 50f 35f
Do 11/20 11:04 2.5ft 6s 13 18 mph 1008.4mb 50f 35f
10:04 2ft 6s 16 18 mph 1008.4mb 50f 35f
9:04 2.5ft 6s 16 18 mph 1008.5mb 50f 36f
8:04 2.5ft 8s 18 22 mph 1008.2mb 50f 38f
7:04 3ft 8s 22 27 mph 1007.3mb 50f 39f
6:04 2.5ft 6s 11 13 mph 1006.6mb 50f 39f
5:04 3ft 8s 16 18 mph 1006.1mb 50f 40f
4:04 2.5ft 8s 16 18 mph 1005.8mb 50f 42f
3:04 3ft 6s 18 25 mph 1005.6mb 50f 42f
2:04 3.5ft 6s 20 25 mph 1005.9mb 50f 43f
1:04 3.5ft 8s 20 25 mph 1006mb 50f 43f
12:04 3ft 8s 16 20 mph 1007.2mb 50f 41f
11:04 3.5ft 8s 16 20 mph 1008.3mb 50f 40f
10:04 4.5ft 8s 18 25 mph 1009.4mb 50f 40f
9:04 3.5ft 8s 16 20 mph 1010.2mb 50f 38f
8:04 4ft 8s 18 22 mph 1010.8mb 50f 38f